Registration

All data are given in time UTC except for the places where it is expressly stated to the contrary, The data provided on this website are informative!!!


Actual Weather
 
Weather - Poland
-8°C Szczecin -18°C Suwałki -13°C Warszawa -9°C Poznan
-11°C Opole -9°C Kraków -9°C Rzeszów
More cities in Poland

Weather - Europe
-1°C Berlin 6°C Paryz 6°C Bruksela -7°C Oslo
-2°C Praga -1°C Zagrzeb
More cities in Europe

METAR EPBC 171500Z 32003KT 7000 BKN016 M14/M18 Q1021=
METAR EPCE 171600Z VRB02KT 6000 NSC M12/M14 Q1022 RMK M125 091 0/0=
METAR EPDA 171600Z VRB02KT CAVOK M10/M12 Q1023 RMK M104 086 0/0=
METAR EPDE 171600Z 31004KT 6000 -SN SCT017 OVC020 M12/M14 Q1021 RMK M118 082 8/3=
METAR EPIR 171600Z 00000KT CAVOK M14/M17 Q1022 RMK M142 079 0/0=
METAR EPKS 171600Z 13004KT 8000 NSC M13/M15 Q1022 RMK M129 084 0/0=
METAR EPLK 171600Z VRB01KT 6000 NSC M15/M16 Q1020 RMK M150 091 0/0=
METAR EPLY 171600Z VRB02KT 8000 NSC M16/M18 Q1021 RMK M164 085 1/1=
METAR EPMB 171600Z VRB01KT CAVOK M21/M24 Q1023 RMK M212 079 0/0=
METAR EPMI 171600Z 13004KT CAVOK M13/M13 Q1021 RMK M130 100 0/0=
METAR EPMM 171600Z VRB02KT 9999 BKN150 M15/M20 Q1020 RMK M151 064 6/6=
METAR EPOK 171600Z 22007KT 9000 BKN026 M10/M13 Q1022 RMK M100 081 5/5=
METAR EPPR 171600Z 00000KT CAVOK M19/M22 Q1023 RMK M191 075 0/0=
METAR EPPW 171600Z 08002KT 7000 NSC M14/M16 Q1022 RMK M144 086 0/0=
METAR EPSN 171600Z 13006KT CAVOK M12/M15 Q1021 RMK M118 080 0/0=
METAR EPTM 171600Z 00000KT 6000 BKN018 M14/M16 Q1020 RMK M139 084 6/6=


 

Copyright©2007 HS-PAF All rights reserved.